EmailTwitter


Surface observations / Quebec / CYUL (71627)

Regions: Quebec | Canada | USA | Europe | France | UK | Elsewhere
Station
Display
Info & Location for CYUL (71627) | Help decoding METAR

Weather Conditions observed on 2019/04/23 at 12:00 UTC at MONTREAL INTL A, QB (CYUL)

Sky conditions: partly cloudy.

Temperature: 9.0 Celsius.

Dewpoint: -2.0 Celsius.

Relative Humidity: 46%

Windchill Factor: 6.

Windchill Factor (Gusts): 5.

Winds: Northeast at 20 km/h or 11 knots.

Gust: 30 km/h or 16 knots.

Mean Sea level Pressure: 101.80 kilopascals.

Altimeter Setting (QNH): 101.76 kilopascals or 30.05 inches of mercury.

Horizontal visibility: 30.00 statute miles or 48.00 kilometers.

Height of the Ceiling: 4572 metres ( 15000 feet ).

Coded METAR:

CYUL 231200Z 03011G16KT 30SM BKN150 BKN170 BKN240 09/M02 A3005 RMK AC5AC2CI1 CI

TR SLP180=